Airport View

Enter AWOS ICAO identifier for current METAR.

ex. KFNL

KSJX 251535Z AUTO 00000KT 10SM SCT027 OVC060 04/M02 A3028 RMK AO2 T00421017

25 Oct 2020 15:58

Frequency: 118.075

Phone: 231-448-3081

Other Area AWOS: KCVX - KISQ - KMGN - KPLN

TAF KPLN 251130Z 2512/2612 00000KT P6SM BKN045 FM251600 VRB03KT P6SM OVC040 FM252100 VRB03KT P6SM VCSH OVC060 FM260000 00000KT P6SM VCSH OVC028 FM260300 VRB03KT 3SM -SHSN BR OVC018